createdAt,value
2019-03-12T08:30:57.653Z,9.38
2019-03-12T08:33:30.781Z,9.90
2019-03-12T08:36:17.235Z,9.38
2019-03-12T08:39:02.595Z,10.20
2019-03-12T08:41:38.377Z,9.20
2019-03-12T08:47:33.564Z,8.23
2019-03-12T08:50:21.525Z,7.12
2019-03-12T08:53:00.418Z,7.08
2019-03-12T08:55:30.535Z,6.97
2019-03-12T08:58:00.623Z,6.65
2019-03-12T09:00:45.578Z,7.40
2019-03-12T09:03:15.645Z,6.90
2019-03-12T09:05:45.736Z,6.37
2019-03-12T09:11:09.653Z,6.37
2019-03-12T09:16:27.386Z,6.37
2019-03-12T09:19:06.477Z,6.90
2019-03-12T09:21:45.239Z,6.40
2019-03-12T09:24:21.344Z,7.50
2019-03-12T09:26:54.314Z,6.97
2019-03-12T09:29:40.598Z,6.72
2019-03-12T09:32:16.340Z,7.67
2019-03-12T09:34:46.425Z,7.92
2019-03-12T09:37:19.309Z,8.10
2019-03-12T09:39:55.070Z,8.30
2019-03-12T09:45:13.882Z,8.65
2019-03-12T09:47:49.989Z,8.55
2019-03-12T09:50:29.060Z,8.65
2019-03-12T09:53:01.958Z,8.55
2019-03-12T09:55:44.224Z,7.83
2019-03-12T09:58:23.282Z,8.35
2019-03-12T10:01:02.133Z,9.23
2019-03-12T10:06:29.659Z,8.88
2019-03-12T10:08:59.742Z,10.08
2019-03-12T10:11:32.835Z,9.78
2019-03-12T10:14:02.915Z,10.50
2019-03-12T10:19:40.195Z,11.63
2019-03-12T10:22:25.291Z,11.45
2019-03-12T10:24:55.355Z,12.47
2019-03-12T10:27:34.427Z,12.20
2019-03-12T10:30:04.766Z,12.40
2019-03-12T10:32:46.935Z,12.98
2019-03-12T10:35:17.006Z,12.93
2019-03-12T10:37:52.824Z,14.15
2019-03-12T10:40:25.565Z,13.28
2019-03-12T10:43:00.874Z,14.68
2019-03-12T10:48:24.562Z,14.05
2019-03-12T10:50:53.076Z,14.43
2019-03-12T10:53:21.541Z,14.68
2019-03-12T10:55:49.988Z,13.68
2019-03-12T10:58:18.435Z,14.23
2019-03-12T11:00:46.878Z,15.20
2019-03-12T11:03:15.465Z,14.53
2019-03-12T11:05:46.296Z,13.28
2019-03-12T11:08:14.220Z,13.15
2019-03-12T11:10:42.658Z,14.10
2019-03-12T11:13:14.302Z,13.38
2019-03-12T11:15:41.272Z,13.70
2019-03-12T11:18:09.712Z,14.45
2019-03-12T11:20:38.126Z,16.30
2019-03-12T11:23:06.581Z,15.05
2019-03-12T11:25:35.123Z,14.73
2019-03-12T11:28:03.663Z,15.90
2019-03-12T11:30:32.105Z,14.70
2019-03-12T11:33:00.541Z,14.98
2019-03-12T11:35:38.776Z,15.05
2019-03-12T11:37:59.202Z,15.25
2019-03-12T11:40:31.857Z,14.87
2019-03-12T11:42:58.005Z,15.83
2019-03-12T11:45:36.222Z,15.00
2019-03-12T11:47:56.732Z,16.48
2019-03-12T11:50:26.152Z,14.50
2019-03-12T11:52:58.288Z,17.77
2019-03-12T11:55:24.896Z,15.53
2019-03-12T11:57:53.314Z,15.85
2019-03-12T12:03:18.368Z,16.87
2019-03-12T12:05:46.833Z,13.93
2019-03-12T12:08:15.261Z,13.88
2019-03-12T12:10:43.693Z,13.13
2019-03-12T12:13:12.160Z,11.78
2019-03-12T12:15:40.596Z,13.50
2019-03-12T12:18:09.092Z,11.83
2019-03-12T12:20:37.518Z,11.48
2019-03-12T12:23:05.951Z,11.28
2019-03-12T12:25:34.377Z,10.55
2019-03-12T12:28:02.837Z,10.20
2019-03-12T12:30:31.345Z,10.82
2019-03-12T12:32:59.783Z,10.20
2019-03-12T12:35:28.224Z,9.98
2019-03-12T12:37:56.641Z,9.18
2019-03-12T12:40:25.077Z,8.78
2019-03-12T12:42:53.509Z,8.35
2019-03-12T12:45:33.694Z,8.10
2019-03-12T12:48:02.141Z,8.18
2019-03-12T12:50:30.727Z,6.65
2019-03-12T12:52:59.146Z,6.72
2019-03-12T12:55:27.658Z,6.45
2019-03-12T12:57:56.077Z,6.47
2019-03-12T13:00:45.395Z,6.58
2019-03-12T13:03:13.901Z,6.17
2019-03-12T13:05:42.348Z,6.05
2019-03-12T13:08:10.841Z,5.55
2019-03-12T13:10:39.288Z,6.05
2019-03-12T13:13:07.727Z,5.50
2019-03-12T13:15:36.154Z,5.10
2019-03-12T13:18:04.609Z,5.30
2019-03-12T13:20:33.125Z,5.05
2019-03-12T13:23:01.626Z,5.22
2019-03-12T13:25:30.049Z,5.10
2019-03-12T13:27:58.487Z,5.00
2019-03-12T13:30:27.154Z,5.00
2019-03-12T13:32:55.610Z,4.80
2019-03-12T13:35:24.178Z,5.15
2019-03-12T13:37:52.685Z,5.17
2019-03-12T13:40:22.018Z,4.17
2019-03-12T13:42:50.602Z,4.78
2019-03-12T13:45:24.692Z,4.22
2019-03-12T13:47:53.310Z,4.12
2019-03-12T13:50:21.813Z,4.87
2019-03-12T13:52:50.403Z,4.00
2019-03-12T13:55:19.104Z,4.33
2019-03-12T13:57:47.601Z,4.08
2019-03-12T14:00:18.184Z,3.70
2019-03-12T14:02:47.056Z,4.03
2019-03-12T14:05:15.737Z,3.67
2019-03-12T14:07:44.215Z,3.75
2019-03-12T14:10:23.538Z,4.12
2019-03-12T14:12:53.215Z,4.53
2019-03-12T14:15:46.849Z,4.05
2019-03-12T14:18:15.278Z,4.22
2019-03-12T14:20:54.973Z,3.70
2019-03-12T14:23:54.682Z,3.85
2019-03-12T14:26:23.110Z,3.55
2019-03-12T14:28:52.684Z,3.87
2019-03-12T14:31:21.488Z,3.92
2019-03-12T14:33:49.977Z,3.75
2019-03-12T14:36:18.485Z,4.03
2019-03-12T14:38:46.973Z,4.60
2019-03-12T14:41:15.477Z,3.80
2019-03-12T14:43:44.010Z,3.45
2019-03-12T14:46:12.494Z,3.40
2019-03-12T14:48:48.796Z,3.92
2019-03-12T14:51:32.021Z,3.58
2019-03-12T14:54:03.493Z,4.72
2019-03-12T14:56:32.293Z,4.33
2019-03-12T14:59:00.814Z,4.17
2019-03-12T15:01:29.242Z,3.98
2019-03-12T15:03:57.694Z,3.40
2019-03-12T15:06:28.756Z,3.98
2019-03-12T15:08:57.185Z,3.98
2019-03-12T15:11:25.627Z,3.90
2019-03-12T15:13:54.129Z,3.52
2019-03-12T15:16:22.617Z,4.22
2019-03-12T15:18:52.142Z,3.40
2019-03-12T15:21:20.850Z,3.25
2019-03-12T15:23:49.294Z,3.40
2019-03-12T15:26:17.706Z,3.08
2019-03-12T15:28:46.187Z,3.67
2019-03-12T15:31:15.123Z,4.45
2019-03-12T15:33:43.613Z,3.10
2019-03-12T15:36:12.037Z,6.00
2019-03-12T15:38:40.457Z,3.42
2019-03-12T15:41:11.860Z,4.03
2019-03-12T15:43:40.296Z,3.33
2019-03-12T15:46:08.708Z,3.22
2019-03-12T15:48:37.236Z,3.42
2019-03-12T15:51:05.738Z,3.22
2019-03-12T15:53:34.180Z,3.75
2019-03-12T15:56:02.621Z,3.45
2019-03-12T15:58:31.058Z,3.58
2019-03-12T16:01:02.404Z,4.10
2019-03-12T16:03:29.664Z,3.65
2019-03-12T16:05:58.096Z,4.22
2019-03-12T16:08:26.541Z,3.37
2019-03-12T16:10:58.322Z,2.77
2019-03-12T16:13:25.122Z,3.20
2019-03-12T16:15:53.541Z,3.00
2019-03-12T16:18:22.022Z,3.33
2019-03-12T16:20:50.514Z,2.83
2019-03-12T16:23:18.929Z,2.58
2019-03-12T16:25:47.360Z,3.42
2019-03-12T16:28:15.804Z,2.92
2019-03-12T16:34:12.314Z,3.00
2019-03-12T16:36:40.749Z,2.70
2019-03-12T16:39:09.246Z,2.95
2019-03-12T16:41:37.691Z,2.45
2019-03-12T16:44:06.144Z,2.77
2019-03-12T16:46:34.557Z,2.52
2019-03-12T16:49:02.978Z,2.90
2019-03-12T16:51:31.421Z,3.05
2019-03-12T16:53:59.841Z,2.72
2019-03-12T16:56:28.420Z,2.98
2019-03-12T16:58:56.941Z,2.72
2019-03-12T17:01:25.355Z,2.87
2019-03-12T17:03:53.804Z,2.87
2019-03-12T17:06:25.477Z,2.50
2019-03-12T17:08:54.546Z,2.62
2019-03-12T17:11:22.980Z,2.75
2019-03-12T17:13:51.411Z,2.95
2019-03-12T17:16:19.946Z,3.83
2019-03-12T17:20:00.693Z,3.10
2019-03-12T17:22:29.168Z,2.65
2019-03-12T17:24:57.734Z,2.92
2019-03-12T17:27:26.192Z,2.70
2019-03-12T17:29:54.624Z,2.60
2019-03-12T17:32:23.055Z,2.40
2019-03-12T17:34:51.493Z,2.58
2019-03-12T17:37:19.922Z,3.00
2019-03-12T17:39:48.391Z,2.52
2019-03-12T17:42:16.896Z,3.47
2019-03-12T17:44:45.349Z,3.25
2019-03-12T17:47:14.846Z,3.00
2019-03-12T17:49:43.291Z,2.90
2019-03-12T17:52:11.733Z,2.47
2019-03-12T17:54:40.150Z,2.90
2019-03-12T17:57:08.613Z,2.80
2019-03-12T17:59:37.041Z,2.45
2019-03-12T18:02:05.468Z,2.90
2019-03-12T18:04:33.984Z,2.80
2019-03-12T18:07:02.426Z,2.50
2019-03-12T18:09:30.937Z,2.83
2019-03-12T18:11:59.433Z,2.77
2019-03-12T18:14:27.870Z,2.92
2019-03-12T18:16:56.294Z,2.70
2019-03-12T18:19:24.714Z,2.72
2019-03-12T18:21:53.133Z,2.90
2019-03-12T18:24:21.561Z,2.67
2019-03-12T18:26:50.007Z,2.90
2019-03-12T18:29:18.490Z,2.62
2019-03-12T18:31:46.905Z,3.30
2019-03-12T18:34:15.353Z,2.83
2019-03-12T18:36:43.781Z,2.60
2019-03-12T18:39:12.356Z,2.58
2019-03-12T18:41:42.102Z,2.80
2019-03-12T18:44:11.600Z,2.27
2019-03-12T18:46:43.097Z,2.35
2019-03-12T18:49:11.580Z,2.40
2019-03-12T18:51:41.226Z,3.08
2019-03-12T18:54:09.656Z,2.42
2019-03-12T18:56:38.898Z,2.47
2019-03-12T18:59:08.255Z,2.55
2019-03-12T19:01:36.939Z,2.75
2019-03-12T19:04:06.206Z,2.52
2019-03-12T19:06:35.832Z,2.42
2019-03-12T19:09:07.011Z,2.45
2019-03-12T19:11:41.512Z,2.85
2019-03-12T19:14:10.271Z,9.30
2019-03-12T19:16:40.634Z,3.87
2019-03-12T19:19:10.022Z,2.98
2019-03-12T19:21:38.521Z,4.67
2019-03-12T19:24:07.019Z,2.92
2019-03-12T19:26:35.505Z,2.83
2019-03-12T19:29:04.069Z,2.70
2019-03-12T19:31:34.135Z,3.55
2019-03-12T19:34:03.417Z,2.50
2019-03-12T19:36:31.869Z,2.22
2019-03-12T19:39:00.308Z,2.35
2019-03-12T19:41:28.721Z,2.80
2019-03-12T19:43:57.150Z,2.52
2019-03-12T19:46:25.658Z,3.37
2019-03-12T19:48:54.116Z,2.65
2019-03-12T19:51:22.616Z,2.50
2019-03-12T19:53:51.306Z,2.40
2019-03-12T19:56:19.753Z,2.62
2019-03-12T19:58:48.269Z,2.45
2019-03-12T20:01:17.314Z,2.72
2019-03-12T20:03:45.920Z,2.52
2019-03-12T20:06:14.383Z,3.45
2019-03-12T20:08:42.871Z,2.33
2019-03-12T20:11:41.345Z,3.40
2019-03-12T20:14:49.368Z,2.87
2019-03-12T20:17:38.844Z,2.60
2019-03-12T20:20:30.034Z,2.95
2019-03-12T20:23:35.110Z,2.17
2019-03-12T20:26:15.327Z,2.40
2019-03-12T20:29:03.728Z,2.40
2019-03-12T20:31:53.103Z,2.72
2019-03-12T20:34:57.878Z,2.47
2019-03-12T20:37:54.968Z,4.37
2019-03-12T20:41:04.953Z,2.77
2019-03-12T20:43:54.011Z,3.47
2019-03-12T20:46:43.086Z,3.22
2019-03-12T20:49:48.985Z,5.10
2019-03-12T20:52:26.159Z,2.60
2019-03-12T20:55:15.363Z,2.60
2019-03-12T20:58:21.453Z,2.85
2019-03-12T21:01:07.298Z,3.42
2019-03-12T21:03:55.933Z,3.40
2019-03-12T21:06:29.065Z,4.22
2019-03-12T21:09:24.516Z,2.42
2019-03-12T21:12:22.313Z,3.35
2019-03-12T21:15:20.095Z,3.58
2019-03-12T21:17:58.346Z,2.30
2019-03-12T21:20:49.114Z,2.35
2019-03-12T21:23:26.722Z,2.67
2019-03-12T21:26:19.904Z,2.40
2019-03-12T21:29:26.370Z,2.92
2019-03-12T21:31:55.299Z,2.70
2019-03-12T21:34:26.206Z,3.65
2019-03-12T21:36:55.400Z,3.15
2019-03-12T21:39:28.598Z,2.10
2019-03-12T21:41:59.219Z,2.02
2019-03-12T21:44:29.386Z,2.30
2019-03-12T21:46:57.978Z,2.20
2019-03-12T21:49:26.424Z,2.83
2019-03-12T21:51:55.045Z,2.17
2019-03-12T21:54:23.476Z,2.00
2019-03-12T21:57:00.624Z,2.20
2019-03-12T21:59:29.061Z,1.80
2019-03-12T22:01:57.478Z,1.90
2019-03-12T22:04:26.259Z,2.35
2019-03-12T22:06:54.965Z,2.35
2019-03-12T22:09:23.460Z,2.45
2019-03-12T22:11:52.026Z,2.37
2019-03-12T22:14:20.625Z,2.40
2019-03-12T22:16:50.709Z,1.70
2019-03-12T22:19:19.141Z,2.08
2019-03-12T22:21:49.505Z,2.10
2019-03-12T22:24:19.571Z,2.15
2019-03-12T22:26:48.751Z,2.12
2019-03-12T22:29:17.159Z,1.92
2019-03-12T22:31:45.585Z,2.12
2019-03-12T22:34:33.357Z,2.25
2019-03-12T22:37:04.461Z,2.02
2019-03-12T22:39:32.896Z,1.92
2019-03-12T22:42:01.309Z,2.08
2019-03-12T22:44:29.737Z,1.90
2019-03-12T22:47:00.033Z,2.02
2019-03-12T22:49:28.506Z,2.17
2019-03-12T22:51:56.925Z,2.15
2019-03-12T22:54:25.418Z,2.17
2019-03-12T22:56:53.896Z,2.12
2019-03-12T22:59:23.499Z,2.20
2019-03-12T23:01:51.978Z,2.92
2019-03-12T23:04:20.512Z,2.55
2019-03-12T23:06:48.923Z,2.50
2019-03-12T23:09:17.370Z,2.77
2019-03-12T23:11:45.837Z,2.40
2019-03-12T23:14:14.468Z,2.65
2019-03-12T23:16:45.643Z,2.60
2019-03-12T23:19:14.126Z,2.83
2019-03-12T23:21:43.155Z,2.90
2019-03-12T23:24:12.086Z,2.70
2019-03-12T23:26:40.588Z,2.47
2019-03-12T23:29:09.101Z,2.90
2019-03-12T23:31:37.531Z,2.70
2019-03-12T23:34:08.951Z,2.83
2019-03-12T23:36:37.388Z,2.90
2019-03-12T23:39:08.310Z,3.17
2019-03-12T23:41:36.800Z,2.75
2019-03-12T23:44:05.338Z,3.27
2019-03-12T23:46:33.742Z,2.87
2019-03-12T23:49:23.095Z,3.17
2019-03-12T23:51:51.534Z,3.30
2019-03-12T23:54:20.022Z,3.08
2019-03-12T23:56:48.508Z,3.15
2019-03-12T23:59:16.952Z,3.62
